createdAt,value
2022-09-15T00:02:45.722Z,96227.50
2022-09-15T00:07:39.216Z,96200.88
2022-09-15T00:12:33.653Z,96199.44
2022-09-15T00:17:28.484Z,96213.56
2022-09-15T00:22:21.984Z,96217.19
2022-09-15T00:27:15.383Z,96187.59
2022-09-15T00:32:08.604Z,96220.56
2022-09-15T00:37:03.384Z,96192.88
2022-09-15T00:41:56.643Z,96184.38
2022-09-15T00:47:17.797Z,96178.63
2022-09-15T00:52:15.778Z,96175.75
2022-09-15T00:57:15.958Z,96187.66
2022-09-15T01:02:16.134Z,96170.13
2022-09-15T01:07:22.746Z,96184.97
2022-09-15T01:12:16.581Z,96170.06
2022-09-15T01:17:24.388Z,96178.22
2022-09-15T01:22:36.679Z,96173.72
2022-09-15T01:28:16.313Z,96183.13
2022-09-15T01:33:34.125Z,96180.34
2022-09-15T01:38:45.178Z,96176.72
2022-09-15T01:43:48.676Z,96162.47
2022-09-15T01:48:44.828Z,96162.00
2022-09-15T01:53:38.371Z,96171.09
2022-09-15T01:58:33.433Z,96161.22
2022-09-15T02:03:35.533Z,96158.03
2022-09-15T02:08:39.266Z,96155.09
2022-09-15T02:13:48.660Z,96153.56
2022-09-15T02:19:10.347Z,96169.06
2022-09-15T02:24:15.338Z,96175.47
2022-09-15T02:29:13.556Z,96170.66
2022-09-15T02:34:14.101Z,96168.53
2022-09-15T02:39:15.955Z,96161.28
2022-09-15T02:44:10.740Z,96157.81
2022-09-15T02:49:04.058Z,96152.25
2022-09-15T02:53:57.244Z,96159.69
2022-09-15T02:58:54.892Z,96164.41
2022-09-15T03:03:48.329Z,96144.50
2022-09-15T03:08:42.207Z,96143.81
2022-09-15T03:13:35.523Z,96142.78
2022-09-15T03:18:30.179Z,96165.72
2022-09-15T03:23:23.444Z,96163.38
2022-09-15T03:28:16.760Z,96171.16
2022-09-15T03:33:09.982Z,96160.53
2022-09-15T03:38:04.673Z,96172.53
2022-09-15T03:42:58.047Z,96178.97
2022-09-15T03:47:51.228Z,96171.16
2022-09-15T03:52:44.438Z,96175.22
2022-09-15T03:57:39.146Z,96177.66
2022-09-15T04:02:32.934Z,96166.94
2022-09-15T04:07:26.509Z,96169.13
2022-09-15T04:12:19.738Z,96159.53
2022-09-15T04:17:15.580Z,96148.84
2022-09-15T04:22:09.006Z,96165.47
2022-09-15T04:27:02.243Z,96156.28
2022-09-15T04:31:55.447Z,96157.22
2022-09-15T04:36:50.085Z,96147.41
2022-09-15T04:41:43.606Z,96146.09
2022-09-15T04:46:36.910Z,96133.75
2022-09-15T04:51:30.983Z,96145.91
2022-09-15T04:56:27.831Z,96144.13
2022-09-15T05:01:24.295Z,96156.88
2022-09-15T05:06:20.517Z,96155.03
2022-09-15T05:11:14.059Z,96164.31
2022-09-15T05:16:12.562Z,96162.38
2022-09-15T05:21:07.487Z,96163.38
2022-09-15T05:26:03.589Z,96157.69
2022-09-15T05:30:57.402Z,96148.66
2022-09-15T05:35:58.980Z,96150.50
2022-09-15T05:40:53.326Z,96144.38
2022-09-15T05:45:55.601Z,96149.78
2022-09-15T05:50:51.474Z,96138.66
2022-09-15T05:55:46.280Z,96137.28
2022-09-15T06:00:40.371Z,96143.63
2022-09-15T06:05:33.628Z,96148.63
2022-09-15T06:10:27.304Z,96148.75
2022-09-15T06:15:22.738Z,96153.84
2022-09-15T06:20:16.159Z,96166.47
2022-09-15T06:25:10.527Z,96153.81
2022-09-15T06:30:04.484Z,96179.69
2022-09-15T06:34:59.748Z,96169.00
2022-09-15T06:39:53.024Z,96178.44
2022-09-15T06:44:46.270Z,96185.69
2022-09-15T06:49:39.496Z,96185.69
2022-09-15T06:54:34.724Z,96185.16
2022-09-15T06:59:28.435Z,96177.78
2022-09-15T07:04:22.746Z,96195.25
2022-09-15T07:09:16.313Z,96194.50
2022-09-15T07:14:12.782Z,96213.75
2022-09-15T07:19:06.197Z,96223.88
2022-09-15T07:24:03.736Z,96216.06
2022-09-15T07:29:03.423Z,96224.13
2022-09-15T07:33:59.133Z,96228.50
2022-09-15T07:38:52.500Z,96243.69
2022-09-15T07:43:48.172Z,96247.81
2022-09-15T07:48:46.753Z,96250.66
2022-09-15T07:53:41.535Z,96261.13
2022-09-15T07:58:35.775Z,96266.53
2022-09-15T08:03:29.030Z,96279.63
2022-09-15T08:08:22.329Z,96272.03
2022-09-15T08:13:19.244Z,96286.59
2022-09-15T08:18:13.212Z,96290.94
2022-09-15T08:23:06.543Z,96289.91
2022-09-15T08:28:00.061Z,96292.53
2022-09-15T08:32:54.750Z,96289.59
2022-09-15T08:37:48.415Z,96288.22
2022-09-15T08:42:44.899Z,96296.34
2022-09-15T08:47:44.344Z,96300.34
2022-09-15T08:52:45.791Z,96304.72
2022-09-15T08:57:39.202Z,96299.81
2022-09-15T09:02:56.327Z,96304.88
2022-09-15T09:08:27.304Z,96305.75
2022-09-15T09:13:35.786Z,96313.56
2022-09-15T09:18:59.778Z,96302.94
2022-09-15T09:24:05.177Z,96309.13
2022-09-15T09:29:01.786Z,96298.03
2022-09-15T09:34:04.261Z,96286.00
2022-09-15T09:38:59.597Z,96276.94
2022-09-15T09:43:55.579Z,96284.00
2022-09-15T09:48:56.316Z,96281.78
2022-09-15T09:53:55.093Z,96271.81
2022-09-15T09:58:49.824Z,96256.16
2022-09-15T10:03:43.868Z,96244.94
2022-09-15T10:08:38.460Z,96255.41
2022-09-15T10:13:32.063Z,96234.72
2022-09-15T10:18:33.869Z,96220.09
2022-09-15T10:23:30.050Z,96219.25
2022-09-15T10:28:25.907Z,96208.38
2022-09-15T10:33:25.041Z,96217.47
2022-09-15T10:38:31.260Z,96221.75
2022-09-15T10:43:43.526Z,96223.28
2022-09-15T10:48:54.170Z,96241.28
2022-09-15T10:54:23.701Z,96252.72
2022-09-15T10:59:38.135Z,96250.69
2022-09-15T11:05:01.727Z,96264.88
2022-09-15T11:10:07.541Z,96240.28
2022-09-15T11:15:24.124Z,96244.00
2022-09-15T11:20:43.132Z,96254.22
2022-09-15T11:25:44.811Z,96259.91
2022-09-15T11:30:47.759Z,96265.56
2022-09-15T11:35:49.067Z,96265.31
2022-09-15T11:40:51.969Z,96246.78
2022-09-15T11:45:54.198Z,96255.41
2022-09-15T11:50:56.037Z,96262.25
2022-09-15T11:56:01.514Z,96268.59
2022-09-15T12:01:01.242Z,96270.22
2022-09-15T12:06:00.145Z,96274.59
2022-09-15T12:11:00.438Z,96275.91
2022-09-15T12:15:54.684Z,96278.16
2022-09-15T12:20:56.423Z,96266.31
2022-09-15T12:26:14.888Z,96273.31
2022-09-15T12:31:26.910Z,96273.09
2022-09-15T12:36:45.680Z,96254.19
2022-09-15T12:41:53.906Z,96232.53
2022-09-15T12:46:53.780Z,96238.09
2022-09-15T12:51:51.311Z,96229.03
2022-09-15T12:56:57.495Z,96242.78
2022-09-15T13:01:52.837Z,96248.53
2022-09-15T13:08:02.656Z,96233.69
2022-09-15T13:13:27.787Z,96255.72
2022-09-15T13:18:25.218Z,96266.75
2022-09-15T13:23:23.449Z,96252.75
2022-09-15T13:28:23.784Z,96259.63
2022-09-15T13:39:32.159Z,96250.28
2022-09-15T13:45:21.998Z,96242.66
2022-09-15T13:50:29.606Z,96235.16
2022-09-15T13:55:27.963Z,96245.94
2022-09-15T14:00:27.054Z,96225.25
2022-09-15T14:05:24.062Z,96205.09
2022-09-15T14:10:25.674Z,96201.63
2022-09-15T14:15:25.822Z,96192.94
2022-09-15T14:20:28.913Z,96172.91
2022-09-15T14:26:03.860Z,96168.06
2022-09-15T14:30:58.782Z,96162.56
2022-09-15T14:36:30.803Z,96181.69
2022-09-15T14:41:24.037Z,96189.91
2022-09-15T14:52:27.264Z,96190.81
2022-09-15T14:57:30.680Z,96193.56
2022-09-15T15:03:40.367Z,96192.47
2022-09-15T15:08:43.567Z,96192.28
2022-09-15T15:13:39.802Z,96192.78
2022-09-15T15:26:02.234Z,96178.88
2022-09-15T15:31:34.600Z,96203.53
2022-09-15T15:36:59.666Z,96193.06
2022-09-15T15:47:47.196Z,96208.94
2022-09-15T15:52:42.376Z,96228.06
2022-09-15T15:57:55.432Z,96224.13
2022-09-15T16:03:31.739Z,96230.13
2022-09-15T16:09:23.043Z,96223.22
2022-09-15T16:14:20.942Z,96214.47
2022-09-15T16:19:14.247Z,96241.50
2022-09-15T16:24:15.109Z,96248.50
2022-09-15T16:29:08.663Z,96246.72
2022-09-15T16:34:02.522Z,96238.50
2022-09-15T16:38:55.808Z,96234.38
2022-09-15T16:43:51.096Z,96238.00
2022-09-15T16:48:47.192Z,96257.06
2022-09-15T16:53:41.262Z,96266.66
2022-09-15T16:58:34.684Z,96259.00
2022-09-15T17:03:29.372Z,96262.31
2022-09-15T17:08:25.712Z,96254.19
2022-09-15T17:13:25.089Z,96242.91
2022-09-15T17:18:22.447Z,96240.16
2022-09-15T17:23:23.409Z,96237.50
2022-09-15T17:28:17.096Z,96238.00
2022-09-15T17:33:14.805Z,96232.56
2022-09-15T17:38:08.939Z,96246.63
2022-09-15T17:43:04.677Z,96234.31
2022-09-15T17:47:58.345Z,96242.88
2022-09-15T17:52:52.811Z,96251.34
2022-09-15T17:57:46.350Z,96249.84
2022-09-15T18:02:43.410Z,96259.16
2022-09-15T18:07:36.768Z,96281.81
2022-09-15T18:12:29.988Z,96288.97
2022-09-15T18:17:23.240Z,96296.31
2022-09-15T18:22:18.004Z,96292.00
2022-09-15T18:27:11.268Z,96295.16
2022-09-15T18:32:06.408Z,96300.56
2022-09-15T18:37:00.236Z,96323.63
2022-09-15T18:41:55.642Z,96324.00
2022-09-15T18:46:48.924Z,96322.19
2022-09-15T18:51:55.727Z,96356.97
2022-09-15T18:56:49.035Z,96353.50
2022-09-15T19:01:43.792Z,96332.09
2022-09-15T19:06:37.198Z,96325.03
2022-09-15T19:11:30.452Z,96324.19
2022-09-15T19:16:34.495Z,96324.19
2022-09-15T19:21:41.781Z,96324.88
2022-09-15T19:26:35.149Z,96321.69
2022-09-15T19:31:28.990Z,96313.25
2022-09-15T19:36:29.574Z,96317.91
2022-09-15T19:41:24.819Z,96327.69
2022-09-15T19:46:21.296Z,96331.47
2022-09-15T19:51:17.181Z,96338.25
2022-09-15T19:56:16.729Z,96354.34
2022-09-15T20:01:14.697Z,96353.69
2022-09-15T20:06:10.273Z,96361.97
2022-09-15T20:11:07.202Z,96362.81
2022-09-15T20:16:03.368Z,96372.56
2022-09-15T20:20:58.297Z,96362.47
2022-09-15T20:25:59.199Z,96365.59
2022-09-15T20:31:12.460Z,96382.81
2022-09-15T20:36:10.102Z,96382.81
2022-09-15T20:41:04.948Z,96380.81
2022-09-15T20:46:00.508Z,96386.97
2022-09-15T20:51:01.449Z,96397.03
2022-09-15T20:55:56.135Z,96408.47
2022-09-15T21:00:49.730Z,96400.97
2022-09-15T21:05:43.820Z,96408.91
2022-09-15T21:10:39.039Z,96407.44
2022-09-15T21:15:34.580Z,96415.19
2022-09-15T21:20:27.792Z,96416.56
2022-09-15T21:25:21.071Z,96430.94
2022-09-15T21:30:14.885Z,96423.81
2022-09-15T21:35:10.276Z,96436.72
2022-09-15T21:40:05.122Z,96439.38
2022-09-15T21:44:58.491Z,96435.03
2022-09-15T21:49:52.309Z,96440.50
2022-09-15T21:54:47.309Z,96448.09
2022-09-15T21:59:40.791Z,96459.81
2022-09-15T22:04:34.483Z,96458.50
2022-09-15T22:09:27.695Z,96454.38
2022-09-15T22:14:23.408Z,96458.16
2022-09-15T22:19:16.643Z,96472.00
2022-09-15T22:24:12.971Z,96453.16
2022-09-15T22:29:07.524Z,96451.66
2022-09-15T22:34:02.581Z,96438.13
2022-09-15T22:38:56.263Z,96445.69
2022-09-15T22:43:50.902Z,96465.78
2022-09-15T22:48:44.552Z,96436.88
2022-09-15T22:53:39.417Z,96428.66
2022-09-15T22:58:32.893Z,96441.50
2022-09-15T23:03:26.163Z,96416.22
2022-09-15T23:08:19.540Z,96431.59
2022-09-15T23:13:14.154Z,96436.63
2022-09-15T23:18:07.509Z,96431.69
2022-09-15T23:23:00.875Z,96432.03
2022-09-15T23:27:54.132Z,96436.13
2022-09-15T23:32:48.726Z,96450.91
2022-09-15T23:37:42.037Z,96429.31
2022-09-15T23:42:35.589Z,96440.69
2022-09-15T23:47:28.802Z,96415.44
2022-09-15T23:52:23.441Z,96422.72
2022-09-15T23:57:16.747Z,96420.59
